createdAt,value
2023-02-14T00:01:09.799Z,61.69
2023-02-14T00:03:37.249Z,61.65
2023-02-14T00:06:13.316Z,61.67
2023-02-14T00:08:43.433Z,61.49
2023-02-14T00:11:12.369Z,62.78
2023-02-14T00:13:39.372Z,62.73
2023-02-14T00:16:06.473Z,62.16
2023-02-14T00:18:52.200Z,62.04
2023-02-14T00:21:19.207Z,62.22
2023-02-14T00:23:46.188Z,62.43
2023-02-14T00:26:15.414Z,62.17
2023-02-14T00:28:43.787Z,62.75
2023-02-14T00:31:11.130Z,62.92
2023-02-14T00:33:38.307Z,62.40
2023-02-14T00:36:07.349Z,62.91
2023-02-14T00:38:35.011Z,62.81
2023-02-14T00:41:02.869Z,62.35
2023-02-14T00:43:29.917Z,62.78
2023-02-14T00:45:57.861Z,62.91
2023-02-14T00:48:25.257Z,62.05
2023-02-14T00:50:52.374Z,62.29
2023-02-14T00:53:19.303Z,62.33
2023-02-14T00:55:47.697Z,62.77
2023-02-14T00:58:15.324Z,63.11
2023-02-14T01:00:42.432Z,64.38
2023-02-14T01:03:09.515Z,64.40
2023-02-14T01:05:36.508Z,64.84
2023-02-14T01:08:04.682Z,64.96
2023-02-14T01:10:31.871Z,64.40
2023-02-14T01:12:59.230Z,64.49
2023-02-14T01:15:27.812Z,63.66
2023-02-14T01:18:13.412Z,63.29
2023-02-14T01:20:41.324Z,63.45
2023-02-14T01:23:08.375Z,63.28
2023-02-14T01:25:38.076Z,63.04
2023-02-14T01:28:06.112Z,63.97
2023-02-14T01:30:33.250Z,63.37
2023-02-14T01:33:00.297Z,64.43
2023-02-14T01:35:27.347Z,65.48
2023-02-14T01:37:54.638Z,65.37
2023-02-14T01:40:21.813Z,65.45
2023-02-14T01:42:48.758Z,65.68
2023-02-14T01:45:26.666Z,65.19
2023-02-14T01:47:56.680Z,65.76
2023-02-14T01:50:36.767Z,65.73
2023-02-14T01:53:09.357Z,65.31
2023-02-14T01:55:42.503Z,64.99
2023-02-14T01:58:11.683Z,64.92
2023-02-14T02:00:59.454Z,64.50
2023-02-14T02:03:38.751Z,64.26
2023-02-14T02:06:16.820Z,64.65
2023-02-14T02:09:08.555Z,65.73
2023-02-14T02:11:35.856Z,65.20
2023-02-14T02:14:03.965Z,64.86
2023-02-14T02:17:21.019Z,65.34
2023-02-14T02:20:03.662Z,65.73
2023-02-14T02:22:53.358Z,66.09
2023-02-14T02:25:38.970Z,66.69
2023-02-14T02:28:54.023Z,66.53
2023-02-14T02:31:39.660Z,66.64
2023-02-14T02:34:15.499Z,65.94
2023-02-14T02:36:56.961Z,65.83
2023-02-14T02:39:46.853Z,65.42
2023-02-14T02:42:55.411Z,65.37
2023-02-14T02:45:57.312Z,65.78
2023-02-14T02:48:31.253Z,66.01
2023-02-14T02:51:18.686Z,65.80
2023-02-14T02:53:59.100Z,66.52
2023-02-14T02:56:49.793Z,66.20
2023-02-14T02:59:30.109Z,66.20
2023-02-14T03:02:21.195Z,65.96
2023-02-14T03:04:56.060Z,65.56
2023-02-14T03:07:39.837Z,65.79
2023-02-14T03:10:27.368Z,65.40
2023-02-14T03:13:00.940Z,65.78
2023-02-14T03:15:28.143Z,65.69
2023-02-14T03:18:14.041Z,65.71
2023-02-14T03:21:00.909Z,65.79
2023-02-14T03:23:32.056Z,65.19
2023-02-14T03:26:27.534Z,65.67
2023-02-14T03:29:12.959Z,65.17
2023-02-14T03:32:08.270Z,65.37
2023-02-14T03:34:55.632Z,65.18
2023-02-14T03:37:38.969Z,65.22
2023-02-14T03:40:25.323Z,65.26
2023-02-14T03:42:58.884Z,64.72
2023-02-14T03:45:33.320Z,64.53
2023-02-14T03:48:06.584Z,64.24
2023-02-14T03:50:36.481Z,65.10
2023-02-14T03:53:07.639Z,64.88
2023-02-14T03:55:47.734Z,65.10
2023-02-14T03:58:43.484Z,64.81
2023-02-14T04:01:32.793Z,64.46
2023-02-14T04:04:01.797Z,63.92
2023-02-14T04:06:28.942Z,65.52
2023-02-14T04:08:55.987Z,66.09
2023-02-14T04:11:24.584Z,66.50
2023-02-14T04:13:51.757Z,66.90
2023-02-14T04:16:18.832Z,67.52
2023-02-14T04:19:04.697Z,67.00
2023-02-14T04:21:31.699Z,67.29
2023-02-14T04:23:58.648Z,67.10
2023-02-14T04:26:25.726Z,66.73
2023-02-14T04:28:52.753Z,67.01
2023-02-14T04:31:19.950Z,66.90
2023-02-14T04:33:48.207Z,66.81
2023-02-14T04:36:15.206Z,66.93
2023-02-14T04:38:42.174Z,66.37
2023-02-14T04:41:09.235Z,66.10
2023-02-14T04:43:36.211Z,65.30
2023-02-14T04:46:03.282Z,65.07
2023-02-14T04:48:30.256Z,64.61
2023-02-14T04:50:57.389Z,64.29
2023-02-14T04:53:24.680Z,63.97
2023-02-14T04:55:51.768Z,64.43
2023-02-14T04:58:18.815Z,63.79
2023-02-14T05:00:46.047Z,63.47
2023-02-14T05:03:13.159Z,63.47
2023-02-14T05:05:40.121Z,62.79
2023-02-14T05:08:07.186Z,62.46
2023-02-14T05:10:34.265Z,61.89
2023-02-14T05:13:01.601Z,62.51
2023-02-14T05:15:28.539Z,61.94
2023-02-14T05:17:55.510Z,61.93
2023-02-14T05:20:22.475Z,61.90
2023-02-14T05:22:49.421Z,61.35
2023-02-14T05:25:16.450Z,60.86
2023-02-14T05:27:43.504Z,61.40
2023-02-14T05:30:11.822Z,61.48
2023-02-14T05:32:39.019Z,61.32
2023-02-14T05:35:06.521Z,61.25
2023-02-14T05:37:33.497Z,61.28
2023-02-14T05:40:00.479Z,61.31
2023-02-14T05:42:27.609Z,61.45
2023-02-14T05:44:54.622Z,61.32
2023-02-14T05:47:21.728Z,61.26
2023-02-14T05:49:48.709Z,61.46
2023-02-14T05:52:15.738Z,61.67
2023-02-14T05:54:42.764Z,61.56
2023-02-14T05:57:09.832Z,60.70
2023-02-14T05:59:36.960Z,61.77
2023-02-14T06:02:04.019Z,60.88
2023-02-14T06:04:31.016Z,61.43
2023-02-14T06:06:58.113Z,61.51
2023-02-14T06:09:25.224Z,61.35
2023-02-14T06:11:54.951Z,61.76
2023-02-14T06:14:22.255Z,61.78
2023-02-14T06:16:49.377Z,61.33
2023-02-14T06:19:16.531Z,61.15
2023-02-14T06:21:43.538Z,61.29
2023-02-14T06:24:10.637Z,61.34
2023-02-14T06:26:37.880Z,61.64
2023-02-14T06:29:04.928Z,60.61
2023-02-14T06:31:32.359Z,60.50
2023-02-14T06:33:59.632Z,60.54
2023-02-14T06:36:27.196Z,60.87
2023-02-14T06:38:54.304Z,61.54
2023-02-14T06:41:21.573Z,61.60
2023-02-14T06:43:51.798Z,61.94
2023-02-14T06:46:19.480Z,62.31
2023-02-14T06:48:46.607Z,62.92
2023-02-14T06:51:13.998Z,63.06
2023-02-14T06:53:41.148Z,62.16
2023-02-14T06:56:08.317Z,62.60
2023-02-14T06:58:35.422Z,62.67
2023-02-14T07:01:02.810Z,61.49
2023-02-14T07:03:30.004Z,62.45
2023-02-14T07:05:58.553Z,61.92
2023-02-14T07:08:26.809Z,61.71
2023-02-14T07:10:58.504Z,61.95
2023-02-14T07:13:26.440Z,62.01
2023-02-14T07:15:53.506Z,61.21
2023-02-14T07:18:20.882Z,60.26
2023-02-14T07:20:47.987Z,60.00
2023-02-14T07:23:15.004Z,59.35
2023-02-14T07:25:42.158Z,59.28
2023-02-14T07:28:09.194Z,58.64
2023-02-14T07:30:36.454Z,59.11
2023-02-14T07:33:03.502Z,58.89
2023-02-14T07:35:30.569Z,58.95
2023-02-14T07:37:57.761Z,58.45
2023-02-14T07:40:25.380Z,59.11
2023-02-14T07:42:54.517Z,58.35
2023-02-14T07:45:22.436Z,58.31
2023-02-14T07:47:54.360Z,58.78
2023-02-14T07:50:23.410Z,58.37
2023-02-14T07:52:50.563Z,58.25
2023-02-14T07:55:19.398Z,57.62
2023-02-14T07:57:49.635Z,56.80
2023-02-14T08:00:18.179Z,56.75
2023-02-14T08:02:45.385Z,56.79
2023-02-14T08:05:20.453Z,56.49
2023-02-14T08:07:47.523Z,56.46
2023-02-14T08:10:15.344Z,55.63
2023-02-14T08:13:00.739Z,55.43
2023-02-14T08:15:48.923Z,54.73
2023-02-14T08:18:18.224Z,54.59
2023-02-14T08:20:46.711Z,54.08
2023-02-14T08:23:13.804Z,54.26
2023-02-14T08:25:41.130Z,54.47
2023-02-14T08:28:08.373Z,54.41
2023-02-14T08:30:40.559Z,54.81
2023-02-14T08:33:07.586Z,56.07
2023-02-14T08:35:35.777Z,57.64
2023-02-14T08:38:02.861Z,58.95
2023-02-14T08:40:30.451Z,60.38
2023-02-14T08:42:57.577Z,60.11
2023-02-14T08:45:24.686Z,60.59
2023-02-14T08:47:51.759Z,60.12
2023-02-14T08:50:19.473Z,60.39
2023-02-14T08:52:46.577Z,60.39
2023-02-14T08:55:14.205Z,59.56
2023-02-14T08:57:41.345Z,60.07
2023-02-14T09:00:10.346Z,60.67
2023-02-14T09:02:37.496Z,60.67
2023-02-14T09:05:06.252Z,59.79
2023-02-14T09:07:33.327Z,59.64
2023-02-14T09:10:00.398Z,60.13
2023-02-14T09:12:27.584Z,59.63
2023-02-14T09:14:54.668Z,60.12
2023-02-14T09:17:21.672Z,59.36
2023-02-14T09:19:48.917Z,59.03
2023-02-14T09:22:15.964Z,57.84
2023-02-14T09:24:42.984Z,56.74
2023-02-14T09:27:10.777Z,55.17
2023-02-14T09:29:37.869Z,55.14
2023-02-14T09:32:05.363Z,55.43
2023-02-14T09:34:34.776Z,55.47
2023-02-14T09:37:02.083Z,54.91
2023-02-14T09:39:29.081Z,55.29
2023-02-14T09:42:17.651Z,55.13
2023-02-14T09:44:51.584Z,54.02
2023-02-14T09:47:51.042Z,54.31
2023-02-14T09:50:20.338Z,53.59
2023-02-14T09:52:51.287Z,54.36
2023-02-14T09:55:18.829Z,53.93
2023-02-14T09:58:13.520Z,53.79
2023-02-14T10:00:48.995Z,52.79
2023-02-14T10:03:37.388Z,53.17
2023-02-14T10:06:24.047Z,52.83
2023-02-14T10:09:11.972Z,51.78
2023-02-14T10:11:40.829Z,51.43
2023-02-14T10:14:20.124Z,52.26
2023-02-14T10:17:07.331Z,52.12
2023-02-14T10:19:43.557Z,51.82
2023-02-14T10:22:19.142Z,52.17
2023-02-14T10:24:59.120Z,51.52
2023-02-14T10:27:35.789Z,52.71
2023-02-14T10:30:13.725Z,52.68
2023-02-14T10:32:46.782Z,51.97
2023-02-14T10:35:24.992Z,52.40
2023-02-14T10:38:11.134Z,52.68
2023-02-14T10:41:15.409Z,53.19
2023-02-14T10:44:03.677Z,53.27
2023-02-14T10:46:43.353Z,52.47
2023-02-14T10:49:16.001Z,52.03
2023-02-14T10:52:19.058Z,51.41
2023-02-14T10:54:54.691Z,49.66
2023-02-14T10:57:24.614Z,49.33
2023-02-14T10:59:57.122Z,48.82
2023-02-14T11:02:31.217Z,49.63
2023-02-14T11:05:00.194Z,49.85
2023-02-14T11:07:27.494Z,50.96
2023-02-14T11:09:54.525Z,50.17
2023-02-14T11:12:41.273Z,50.61
2023-02-14T11:15:21.863Z,51.78
2023-02-14T11:17:49.356Z,50.64
2023-02-14T11:20:20.080Z,52.24
2023-02-14T11:22:47.166Z,51.31
2023-02-14T11:25:20.379Z,51.89
2023-02-14T11:27:50.370Z,52.14
2023-02-14T11:30:26.845Z,51.44
2023-02-14T11:32:56.482Z,51.75
2023-02-14T11:35:30.441Z,52.04
2023-02-14T11:37:58.430Z,52.04
2023-02-14T11:40:39.802Z,52.31
2023-02-14T11:43:14.817Z,51.85
2023-02-14T11:45:44.440Z,51.83
2023-02-14T11:48:36.524Z,52.18
2023-02-14T11:51:16.534Z,50.79
2023-02-14T11:53:48.976Z,51.03
2023-02-14T11:56:18.538Z,50.13
2023-02-14T11:58:55.231Z,50.08
2023-02-14T12:01:30.009Z,49.88
2023-02-14T12:04:03.815Z,49.38
2023-02-14T12:06:34.265Z,49.43
2023-02-14T12:09:23.694Z,50.28
2023-02-14T12:12:23.406Z,49.64
2023-02-14T12:14:50.656Z,49.16
2023-02-14T12:17:31.492Z,49.95
2023-02-14T12:20:01.642Z,50.86
2023-02-14T12:22:36.962Z,50.49
2023-02-14T12:25:16.776Z,51.41
2023-02-14T12:28:06.208Z,51.70
2023-02-14T12:30:35.324Z,51.80
2023-02-14T12:33:02.649Z,52.20
2023-02-14T12:36:00.776Z,52.02
2023-02-14T12:38:45.207Z,52.29
2023-02-14T12:41:21.229Z,52.19
2023-02-14T12:43:50.815Z,51.86
2023-02-14T12:46:39.749Z,51.77
2023-02-14T12:49:20.586Z,52.84
2023-02-14T12:52:05.167Z,51.62
2023-02-14T12:54:49.956Z,51.98
2023-02-14T12:57:39.123Z,52.30
2023-02-14T13:00:25.088Z,53.16
2023-02-14T13:03:33.828Z,52.80
2023-02-14T13:06:41.441Z,52.45
2023-02-14T13:09:29.935Z,52.97
2023-02-14T13:12:12.053Z,52.61
2023-02-14T13:14:45.817Z,52.81
2023-02-14T13:17:20.488Z,52.98
2023-02-14T13:19:47.585Z,52.95
2023-02-14T13:22:19.458Z,53.28
2023-02-14T13:24:50.378Z,53.54
2023-02-14T13:27:24.996Z,53.48
2023-02-14T13:30:05.188Z,53.56
2023-02-14T13:32:39.727Z,54.23
2023-02-14T13:35:08.701Z,53.93
2023-02-14T13:37:37.254Z,53.38
2023-02-14T13:40:08.989Z,54.38
2023-02-14T13:42:48.536Z,54.31
2023-02-14T13:45:39.679Z,54.21
2023-02-14T13:48:15.779Z,54.67
2023-02-14T13:50:55.959Z,54.74
2023-02-14T13:53:34.384Z,54.95
2023-02-14T13:56:26.995Z,54.48
2023-02-14T13:59:00.497Z,54.45
2023-02-14T14:01:48.885Z,54.42
2023-02-14T14:04:28.620Z,54.39
2023-02-14T14:07:05.149Z,54.94
2023-02-14T14:09:45.582Z,54.63
2023-02-14T14:12:27.816Z,54.95
2023-02-14T14:15:08.193Z,54.45
2023-02-14T14:17:40.872Z,54.82
2023-02-14T14:20:18.769Z,54.50
2023-02-14T14:23:00.189Z,55.31
2023-02-14T14:25:34.260Z,54.47
2023-02-14T14:28:01.699Z,54.82
2023-02-14T14:30:33.612Z,54.85
2023-02-14T14:33:26.961Z,55.61
2023-02-14T14:35:57.609Z,55.65
2023-02-14T14:38:27.204Z,55.79
2023-02-14T14:40:54.848Z,55.71
2023-02-14T14:43:27.480Z,55.96
2023-02-14T14:45:56.321Z,55.93
2023-02-14T14:48:33.505Z,56.21
2023-02-14T14:51:01.091Z,56.04
2023-02-14T14:53:34.823Z,56.15
2023-02-14T14:56:02.333Z,55.90
2023-02-14T14:58:40.051Z,56.03
2023-02-14T15:01:11.159Z,56.78
2023-02-14T15:03:38.320Z,56.36
2023-02-14T15:06:21.997Z,56.66
2023-02-14T15:08:51.606Z,56.58
2023-02-14T15:11:46.864Z,56.54
2023-02-14T15:14:20.486Z,56.32
2023-02-14T15:16:54.920Z,56.54
2023-02-14T15:19:34.532Z,56.58
2023-02-14T15:22:04.510Z,57.11
2023-02-14T15:24:35.319Z,57.48
2023-02-14T15:27:03.227Z,57.50
2023-02-14T15:29:32.968Z,58.01
2023-02-14T15:32:03.374Z,58.09
2023-02-14T15:34:36.428Z,58.48
2023-02-14T15:37:06.786Z,58.92
2023-02-14T15:39:38.250Z,58.38
2023-02-14T15:42:06.628Z,58.41
2023-02-14T15:44:33.778Z,58.72
2023-02-14T15:47:05.722Z,58.41
2023-02-14T15:49:36.632Z,58.06
2023-02-14T15:52:07.030Z,58.43
2023-02-14T15:54:45.240Z,58.59
2023-02-14T15:57:29.770Z,58.98
2023-02-14T15:59:56.999Z,58.86
2023-02-14T16:02:38.000Z,58.35
2023-02-14T16:05:27.724Z,58.87
2023-02-14T16:08:03.662Z,58.93
2023-02-14T16:10:36.574Z,59.32
2023-02-14T16:13:16.697Z,59.18
2023-02-14T16:16:02.148Z,59.41
2023-02-14T16:18:45.431Z,59.08
2023-02-14T16:21:31.433Z,58.97
2023-02-14T16:24:07.630Z,59.23
2023-02-14T16:26:38.045Z,59.17
2023-02-14T16:29:06.539Z,59.20
2023-02-14T16:31:34.284Z,58.79
2023-02-14T16:34:01.782Z,59.03
2023-02-14T16:36:34.069Z,58.69
2023-02-14T16:39:05.152Z,57.88
2023-02-14T16:41:34.846Z,58.40
2023-02-14T16:44:02.086Z,58.38
2023-02-14T16:46:31.422Z,58.65
2023-02-14T16:48:58.865Z,58.78
2023-02-14T16:51:32.721Z,58.37
2023-02-14T16:54:04.321Z,57.83
2023-02-14T16:56:48.640Z,58.54
2023-02-14T16:59:15.650Z,58.24
2023-02-14T17:01:42.640Z,57.98
2023-02-14T17:04:10.240Z,57.48
2023-02-14T17:06:41.924Z,57.58
2023-02-14T17:09:11.924Z,57.77
2023-02-14T17:11:44.641Z,57.61
2023-02-14T17:14:14.441Z,57.81
2023-02-14T17:16:42.454Z,57.28
2023-02-14T17:19:10.380Z,57.85
2023-02-14T17:21:38.646Z,57.84
2023-02-14T17:24:05.918Z,57.91
2023-02-14T17:26:33.998Z,57.82
2023-02-14T17:29:01.092Z,57.39
2023-02-14T17:31:28.796Z,57.31
2023-02-14T17:33:56.260Z,57.00
2023-02-14T17:36:24.290Z,57.51
2023-02-14T17:38:53.766Z,57.40
2023-02-14T17:41:23.884Z,57.59
2023-02-14T17:43:55.431Z,56.94
2023-02-14T17:46:25.455Z,57.06
2023-02-14T17:48:52.491Z,56.58
2023-02-14T17:51:22.446Z,56.91
2023-02-14T17:53:50.377Z,56.82
2023-02-14T17:56:20.502Z,56.98
2023-02-14T17:58:49.402Z,57.02
2023-02-14T18:01:19.160Z,57.68
2023-02-14T18:03:46.640Z,57.70
2023-02-14T18:06:14.521Z,57.60
2023-02-14T18:08:46.681Z,57.44
2023-02-14T18:11:14.213Z,57.87
2023-02-14T18:13:41.460Z,57.71
2023-02-14T18:16:11.495Z,58.07
2023-02-14T18:18:39.383Z,57.76
2023-02-14T18:21:10.790Z,57.80
2023-02-14T18:23:38.180Z,57.99
2023-02-14T18:26:08.003Z,58.30
2023-02-14T18:28:36.284Z,58.13
2023-02-14T18:31:10.064Z,58.13
2023-02-14T18:33:38.114Z,58.71
2023-02-14T18:36:14.667Z,58.81
2023-02-14T18:38:43.630Z,58.83
2023-02-14T18:41:16.415Z,59.27
2023-02-14T18:43:44.805Z,59.85
2023-02-14T18:46:15.173Z,59.58
2023-02-14T18:48:45.569Z,59.41
2023-02-14T18:51:19.470Z,59.10
2023-02-14T18:53:47.604Z,59.60
2023-02-14T18:56:17.774Z,59.08
2023-02-14T18:58:48.272Z,58.35
2023-02-14T19:01:17.707Z,58.40
2023-02-14T19:03:49.917Z,58.24
2023-02-14T19:06:18.057Z,57.49
2023-02-14T19:08:45.916Z,57.57
2023-02-14T19:11:19.521Z,57.08
2023-02-14T19:13:54.702Z,56.68
2023-02-14T19:16:24.410Z,56.46
2023-02-14T19:18:54.993Z,55.89
2023-02-14T19:21:25.493Z,55.75
2023-02-14T19:23:55.017Z,55.51
2023-02-14T19:26:24.791Z,55.15
2023-02-14T19:28:56.952Z,54.76
2023-02-14T19:31:25.196Z,54.38
2023-02-14T19:33:52.656Z,54.23
2023-02-14T19:36:21.702Z,54.38
2023-02-14T19:38:52.617Z,54.55
2023-02-14T19:41:24.897Z,54.94
2023-02-14T19:43:53.292Z,55.23
2023-02-14T19:46:21.703Z,55.45
2023-02-14T19:48:48.973Z,54.99
2023-02-14T19:51:30.627Z,54.96
2023-02-14T19:53:59.904Z,55.63
2023-02-14T19:56:29.795Z,55.73
2023-02-14T19:58:57.017Z,55.48
2023-02-14T20:01:30.797Z,55.52
2023-02-14T20:03:58.122Z,55.55
2023-02-14T20:06:26.386Z,55.83
2023-02-14T20:08:53.894Z,55.31
2023-02-14T20:11:35.634Z,56.25
2023-02-14T20:14:03.702Z,55.87
2023-02-14T20:16:33.334Z,56.13
2023-02-14T20:19:08.169Z,56.80
2023-02-14T20:21:35.558Z,57.34
2023-02-14T20:24:04.001Z,56.86
2023-02-14T20:26:33.096Z,57.18
2023-02-14T20:29:03.988Z,57.25
2023-02-14T20:31:32.566Z,56.48
2023-02-14T20:34:00.673Z,56.48
2023-02-14T20:36:28.384Z,56.68
2023-02-14T20:38:56.332Z,56.00
2023-02-14T20:41:24.263Z,55.98
2023-02-14T20:43:51.218Z,56.26
2023-02-14T20:46:18.423Z,55.49
2023-02-14T20:48:45.625Z,55.31
2023-02-14T20:51:17.761Z,55.11
2023-02-14T20:53:46.220Z,55.67
2023-02-14T20:56:14.498Z,55.53
2023-02-14T20:58:42.431Z,55.59
2023-02-14T21:01:13.442Z,55.51
2023-02-14T21:03:41.694Z,55.53
2023-02-14T21:06:11.732Z,55.67
2023-02-14T21:08:40.045Z,55.04
2023-02-14T21:11:08.010Z,54.89
2023-02-14T21:13:35.484Z,54.24
2023-02-14T21:16:11.561Z,54.60
2023-02-14T21:18:39.345Z,54.67
2023-02-14T21:21:14.962Z,54.64
2023-02-14T21:23:42.157Z,54.32
2023-02-14T21:26:10.174Z,55.09
2023-02-14T21:28:37.260Z,54.63
2023-02-14T21:31:10.093Z,55.06
2023-02-14T21:33:37.505Z,54.38
2023-02-14T21:36:08.003Z,54.68
2023-02-14T21:38:35.766Z,54.34
2023-02-14T21:41:05.810Z,54.31
2023-02-14T21:43:38.016Z,54.56
2023-02-14T21:46:11.382Z,54.06
2023-02-14T21:48:57.095Z,54.53
2023-02-14T21:51:24.556Z,54.10
2023-02-14T21:53:51.798Z,53.89
2023-02-14T21:56:20.485Z,54.60
2023-02-14T21:58:49.525Z,54.08
2023-02-14T22:01:31.728Z,54.13
2023-02-14T22:03:59.914Z,54.84
2023-02-14T22:06:27.744Z,54.65
2023-02-14T22:08:57.066Z,54.57
2023-02-14T22:11:26.080Z,54.69
2023-02-14T22:13:53.537Z,54.53
2023-02-14T22:16:21.722Z,54.75
2023-02-14T22:18:49.355Z,55.13
2023-02-14T22:21:22.134Z,55.17
2023-02-14T22:23:49.777Z,54.92
2023-02-14T22:26:28.704Z,54.68
2023-02-14T22:29:01.037Z,54.52
2023-02-14T22:31:32.872Z,54.07
2023-02-14T22:33:59.987Z,54.08
2023-02-14T22:36:27.108Z,53.88
2023-02-14T22:38:54.147Z,54.29
2023-02-14T22:41:24.015Z,53.98
2023-02-14T22:43:52.947Z,53.49
2023-02-14T22:46:21.355Z,53.79
2023-02-14T22:48:49.918Z,53.71
2023-02-14T22:51:29.354Z,54.30
2023-02-14T22:54:02.539Z,54.14
2023-02-14T22:56:34.296Z,54.28
2023-02-14T22:59:04.988Z,54.92
2023-02-14T23:01:34.010Z,54.77
2023-02-14T23:04:02.691Z,55.14
2023-02-14T23:06:31.846Z,54.86
2023-02-14T23:08:59.363Z,55.15
2023-02-14T23:11:29.317Z,55.63
2023-02-14T23:14:16.223Z,55.38
2023-02-14T23:17:02.276Z,55.02
2023-02-14T23:19:50.371Z,55.49
2023-02-14T23:22:29.726Z,55.57
2023-02-14T23:24:59.102Z,55.70
2023-02-14T23:27:37.349Z,55.38
2023-02-14T23:30:09.920Z,55.55
2023-02-14T23:32:37.124Z,55.29
2023-02-14T23:35:04.503Z,55.19
2023-02-14T23:37:31.515Z,55.87
2023-02-14T23:39:58.553Z,55.75
2023-02-14T23:42:25.567Z,56.03
2023-02-14T23:44:52.552Z,55.32
2023-02-14T23:47:19.709Z,55.52
2023-02-14T23:49:46.711Z,55.49
2023-02-14T23:52:14.155Z,55.37
2023-02-14T23:54:41.244Z,55.56
2023-02-14T23:57:08.950Z,55.32
2023-02-14T23:59:35.990Z,55.32
